Afton, California
Current Conditions -  °F | °C
As of 8:53 AM on Tuesday 27 Jan 2015 (Local Time) from KOVE Reporting Station
Broken Clouds Broken Clouds  
Wind Chill: 12°   Ceiling: 12000
Heat Index: 12°   Visibility: 8mi
Dew Point:   Wind: 5mph
Humidity: 77%   Direction: 140°SE
Pressure: 30.2"   Gusts: NA
Location:  39.4608°N, 121.937°W
Report Text: KOVE 271653Z AUTO 14004KT 8SM BKN120 12/08 A3020 RMK AO2 SLP230 T01170078
Loading
Personal Weather Stations






























Interactive Weather Map New forecast layout! Learn more

10-Day Weather Forecast

Advertisements
Track Severe Weather on mobile